createdAt,value
2023-04-28T00:05:20.868Z,9.93
2023-04-28T00:10:46.175Z,10.20
2023-04-28T00:16:14.174Z,11.12
2023-04-28T00:21:39.951Z,10.05
2023-04-28T00:27:04.978Z,9.75
2023-04-28T00:32:29.650Z,10.18
2023-04-28T00:37:54.952Z,9.53
2023-04-28T00:43:19.629Z,9.00
2023-04-28T00:48:44.574Z,10.15
2023-04-28T00:54:08.691Z,9.55
2023-04-28T00:59:33.366Z,8.58
2023-04-28T01:05:01.213Z,9.53
2023-04-28T01:10:25.654Z,9.65
2023-04-28T01:15:49.408Z,8.00
2023-04-28T01:21:14.103Z,7.60
2023-04-28T01:26:38.189Z,7.40
2023-04-28T01:32:03.062Z,7.37
2023-04-28T01:37:27.959Z,6.40
2023-04-28T01:42:52.354Z,7.60
2023-04-28T01:48:16.150Z,7.80
2023-04-28T01:53:40.718Z,7.53
2023-04-28T01:59:05.375Z,6.87
2023-04-28T02:04:29.435Z,7.65
2023-04-28T02:09:53.579Z,8.65
2023-04-28T02:15:17.326Z,7.75
2023-04-28T02:20:42.158Z,7.70
2023-04-28T02:26:07.722Z,8.28
2023-04-28T02:31:33.437Z,7.97
2023-04-28T02:36:58.448Z,9.53
2023-04-28T02:42:22.242Z,9.88
2023-04-28T02:47:46.937Z,9.18
2023-04-28T02:53:10.803Z,11.60
2023-04-28T02:58:36.036Z,11.12
2023-04-28T03:04:01.526Z,12.13
2023-04-28T03:09:26.664Z,11.65
2023-04-28T03:14:51.058Z,13.95
2023-04-28T03:20:16.213Z,14.38
2023-04-28T03:25:41.113Z,14.63
2023-04-28T03:31:04.605Z,15.98
2023-04-28T03:36:29.076Z,16.50
2023-04-28T03:41:54.097Z,16.40
2023-04-28T03:47:19.056Z,15.70
2023-04-28T03:52:43.961Z,13.72
2023-04-28T03:58:08.378Z,15.18
2023-04-28T04:03:33.480Z,13.72
2023-04-28T04:08:57.646Z,14.43
2023-04-28T04:14:22.552Z,16.15
2023-04-28T04:19:46.987Z,15.00
2023-04-28T04:25:10.712Z,15.03
2023-04-28T04:30:34.510Z,14.07
2023-04-28T04:35:58.716Z,12.60
2023-04-28T04:41:23.432Z,14.13
2023-04-28T04:46:48.193Z,12.28
2023-04-28T04:52:11.728Z,11.73
2023-04-28T04:57:36.450Z,12.33
2023-04-28T05:03:01.280Z,13.70
2023-04-28T05:08:26.519Z,14.95
2023-04-28T05:13:51.976Z,14.55
2023-04-28T05:19:16.620Z,14.20
2023-04-28T05:24:41.571Z,13.35
2023-04-28T05:30:06.587Z,14.35
2023-04-28T05:35:32.104Z,13.62
2023-04-28T05:40:56.622Z,13.55
2023-04-28T05:46:30.127Z,13.98
2023-04-28T05:51:48.521Z,14.38
2023-04-28T05:57:14.757Z,14.25
2023-04-28T06:02:39.675Z,13.03
2023-04-28T06:08:04.891Z,12.73
2023-04-28T06:13:28.925Z,11.55
2023-04-28T06:18:53.623Z,12.07
2023-04-28T06:24:19.134Z,11.73
2023-04-28T06:29:43.020Z,12.55
2023-04-28T06:35:07.879Z,13.00
2023-04-28T06:40:32.919Z,12.45
2023-04-28T06:45:58.011Z,12.53
2023-04-28T06:51:22.664Z,13.00
2023-04-28T06:56:47.047Z,13.13
2023-04-28T07:02:12.141Z,12.78
2023-04-28T07:07:36.412Z,12.95
2023-04-28T07:13:01.280Z,11.80
2023-04-28T07:18:25.899Z,9.73
2023-04-28T07:23:50.004Z,10.45
2023-04-28T07:29:16.247Z,8.73
2023-04-28T07:34:40.985Z,6.58
2023-04-28T07:40:05.299Z,8.15
2023-04-28T07:45:29.282Z,4.33
2023-04-28T07:50:52.452Z,4.20
2023-04-28T07:56:17.281Z,4.67
2023-04-28T08:01:42.000Z,3.58
2023-04-28T08:07:06.688Z,3.65
2023-04-28T08:12:31.135Z,2.80
2023-04-28T08:17:55.752Z,2.47
2023-04-28T08:23:20.901Z,2.98
2023-04-28T08:28:45.455Z,2.55
2023-04-28T08:34:10.172Z,1.80
2023-04-28T08:39:35.661Z,2.25
2023-04-28T08:45:00.875Z,1.90
2023-04-28T08:50:29.086Z,2.00
2023-04-28T08:55:56.919Z,2.35
2023-04-28T09:01:24.106Z,2.00
2023-04-28T09:06:51.468Z,2.00
2023-04-28T09:12:18.316Z,2.20
2023-04-28T09:17:55.856Z,1.90
2023-04-28T09:23:37.783Z,2.05
2023-04-28T09:29:04.017Z,2.55
2023-04-28T09:34:29.042Z,2.10
2023-04-28T09:39:54.484Z,2.22
2023-04-28T09:45:21.714Z,2.12
2023-04-28T09:50:47.403Z,2.22
2023-04-28T09:56:14.377Z,2.40
2023-04-28T10:01:41.044Z,1.55
2023-04-28T10:07:05.019Z,2.08
2023-04-28T10:12:30.178Z,2.20
2023-04-28T10:17:55.553Z,2.22
2023-04-28T10:29:20.262Z,2.10
2023-04-28T10:34:44.887Z,2.12
2023-04-28T10:40:45.974Z,2.03
2023-04-28T10:51:38.407Z,2.00
2023-04-28T10:57:27.366Z,2.23
2023-04-28T11:03:02.561Z,2.10
2023-04-28T11:08:43.375Z,2.60
2023-04-28T11:14:26.145Z,1.90
2023-04-28T11:19:58.541Z,2.07
2023-04-28T11:25:24.162Z,1.90
2023-04-28T11:30:52.586Z,2.10
2023-04-28T11:36:19.189Z,1.90
2023-04-28T11:41:51.455Z,1.93
2023-04-28T11:47:20.139Z,1.80
2023-04-28T11:52:47.692Z,2.00
2023-04-28T11:58:31.430Z,1.92
2023-04-28T12:04:05.830Z,1.87
2023-04-28T12:09:38.494Z,1.60
2023-04-28T12:15:20.516Z,1.70
2023-04-28T12:20:58.230Z,3.60
2023-04-28T12:26:23.177Z,1.73
2023-04-28T12:31:58.076Z,2.33
2023-04-28T12:37:22.906Z,4.75
2023-04-28T12:42:45.910Z,2.02
2023-04-28T12:48:11.266Z,2.20
2023-04-28T12:53:36.071Z,2.40
2023-04-28T12:58:59.150Z,2.25
2023-04-28T13:04:21.800Z,12.37
2023-04-28T13:09:44.923Z,2.92
2023-04-28T13:15:09.284Z,2.72
2023-04-28T13:20:32.525Z,2.75
2023-04-28T13:25:57.900Z,3.10
2023-04-28T13:31:22.351Z,3.60
2023-04-28T13:36:49.611Z,3.40
2023-04-28T13:42:13.644Z,3.87
2023-04-28T13:47:36.173Z,3.37
2023-04-28T13:52:59.068Z,4.00
2023-04-28T13:58:23.643Z,3.50
2023-04-28T14:03:46.173Z,3.70
2023-04-28T14:09:10.891Z,3.80
2023-04-28T14:14:36.435Z,4.25
2023-04-28T14:20:00.223Z,4.33
2023-04-28T14:25:25.039Z,4.67
2023-04-28T14:30:50.492Z,4.58
2023-04-28T14:36:14.541Z,5.17
2023-04-28T14:41:40.298Z,4.40
2023-04-28T14:47:05.384Z,4.97
2023-04-28T14:52:30.826Z,5.20
2023-04-28T14:57:55.143Z,4.10
2023-04-28T15:03:20.783Z,4.03
2023-04-28T15:08:46.304Z,4.15
2023-04-28T15:14:10.654Z,4.70
2023-04-28T15:19:35.471Z,4.60
2023-04-28T15:24:59.779Z,5.03
2023-04-28T15:30:24.185Z,4.60
2023-04-28T15:35:49.281Z,15.80
2023-04-28T15:41:14.014Z,4.73
2023-04-28T15:46:38.747Z,4.77
2023-04-28T15:52:03.745Z,4.65
2023-04-28T15:57:29.776Z,4.90
2023-04-28T16:02:54.429Z,5.72
2023-04-28T16:08:19.713Z,4.77
2023-04-28T16:13:45.079Z,5.25
2023-04-28T16:19:10.465Z,4.93
2023-04-28T16:24:35.854Z,4.37
2023-04-28T16:29:59.807Z,4.80
2023-04-28T16:35:24.464Z,4.53
2023-04-28T16:40:49.185Z,4.97
2023-04-28T16:46:14.020Z,5.08
2023-04-28T16:51:41.274Z,5.03
2023-04-28T16:57:05.798Z,4.85
2023-04-28T17:02:30.214Z,5.17
2023-04-28T17:07:55.267Z,4.42
2023-04-28T17:13:20.204Z,4.45
2023-04-28T17:18:45.441Z,4.75
2023-04-28T17:24:09.568Z,4.85
2023-04-28T17:29:34.268Z,4.50
2023-04-28T17:34:59.033Z,5.17
2023-04-28T17:40:28.167Z,6.03
2023-04-28T17:45:54.267Z,5.37
2023-04-28T17:51:19.217Z,5.50
2023-04-28T17:56:44.126Z,6.33
2023-04-28T18:02:08.587Z,5.30
2023-04-28T18:07:35.436Z,6.22
2023-04-28T18:13:00.758Z,5.87
2023-04-28T18:18:25.837Z,6.17
2023-04-28T18:23:50.735Z,5.83
2023-04-28T18:29:14.236Z,6.07
2023-04-28T18:34:38.944Z,6.20
2023-04-28T18:40:04.756Z,7.07
2023-04-28T18:45:29.622Z,6.20
2023-04-28T18:50:54.235Z,6.63
2023-04-28T18:56:19.248Z,12.68
2023-04-28T19:01:44.599Z,7.57
2023-04-28T19:07:09.079Z,8.58
2023-04-28T19:12:32.829Z,9.20
2023-04-28T19:17:57.258Z,10.08
2023-04-28T19:23:22.622Z,10.10
2023-04-28T19:28:46.927Z,10.40
2023-04-28T19:34:12.307Z,12.18
2023-04-28T19:39:36.703Z,11.43
2023-04-28T19:45:04.874Z,12.70
2023-04-28T19:50:29.778Z,11.43
2023-04-28T19:55:53.510Z,29.07
2023-04-28T20:01:19.528Z,11.70
2023-04-28T20:06:43.904Z,11.35
2023-04-28T20:12:08.362Z,12.18
2023-04-28T20:17:33.666Z,10.72
2023-04-28T20:22:56.334Z,10.45
2023-04-28T20:28:19.657Z,10.93
2023-04-28T20:33:43.718Z,11.05
2023-04-28T20:39:10.089Z,11.55
2023-04-28T20:44:35.915Z,34.92
2023-04-28T20:50:00.656Z,13.45
2023-04-28T20:55:25.373Z,12.93
2023-04-28T21:00:50.090Z,12.63
2023-04-28T21:06:14.771Z,12.50
2023-04-28T21:11:39.204Z,13.70
2023-04-28T21:17:04.044Z,13.28
2023-04-28T21:22:28.939Z,12.82
2023-04-28T21:27:53.422Z,12.80
2023-04-28T21:33:17.758Z,13.18
2023-04-28T21:38:42.274Z,13.30
2023-04-28T21:44:06.310Z,12.82
2023-04-28T21:49:30.964Z,13.03
2023-04-28T21:54:55.770Z,12.63
2023-04-28T22:00:22.436Z,13.20
2023-04-28T22:05:47.478Z,13.03
2023-04-28T22:11:12.661Z,13.08
2023-04-28T22:16:37.511Z,12.23
2023-04-28T22:22:02.538Z,13.83
2023-04-28T22:27:28.074Z,12.40
2023-04-28T22:32:54.346Z,11.95
2023-04-28T22:38:18.674Z,12.98
2023-04-28T22:43:43.310Z,12.10
2023-04-28T22:49:08.245Z,11.20
2023-04-28T22:54:33.388Z,12.37
2023-04-28T22:59:58.530Z,11.35
2023-04-28T23:05:22.526Z,12.50
2023-04-28T23:10:46.737Z,12.50
2023-04-28T23:16:11.650Z,11.60
2023-04-28T23:21:36.139Z,12.23
2023-04-28T23:27:01.172Z,11.20
2023-04-28T23:32:25.621Z,10.48
2023-04-28T23:37:49.674Z,11.48
2023-04-28T23:43:14.778Z,11.22
2023-04-28T23:48:39.007Z,10.63
2023-04-28T23:54:03.792Z,11.90
2023-04-28T23:59:29.139Z,11.08
